createdAt,value
2023-12-18T00:01:04.445Z,100.00
2023-12-18T00:03:33.470Z,100.00
2023-12-18T00:06:01.069Z,100.00
2023-12-18T00:08:28.639Z,100.00
2023-12-18T00:10:56.233Z,100.00
2023-12-18T00:13:23.818Z,100.00
2023-12-18T00:15:51.345Z,100.00
2023-12-18T00:18:19.089Z,100.00
2023-12-18T00:20:48.034Z,100.00
2023-12-18T00:23:15.606Z,100.00
2023-12-18T00:25:44.152Z,100.00
2023-12-18T00:28:11.670Z,100.00
2023-12-18T00:30:39.295Z,100.00
2023-12-18T00:33:07.016Z,100.00
2023-12-18T00:35:34.635Z,100.00
2023-12-18T00:38:03.481Z,100.00
2023-12-18T00:40:31.046Z,100.00
2023-12-18T00:42:59.013Z,100.00
2023-12-18T00:45:26.612Z,100.00
2023-12-18T00:47:54.389Z,100.00
2023-12-18T00:50:22.223Z,100.00
2023-12-18T00:52:49.886Z,100.00
2023-12-18T00:55:18.748Z,100.00
2023-12-18T00:57:49.483Z,100.00
2023-12-18T01:00:20.094Z,100.00
2023-12-18T01:02:48.366Z,100.00
2023-12-18T01:05:16.120Z,100.00
2023-12-18T01:07:44.377Z,100.00
2023-12-18T01:10:12.303Z,100.00
2023-12-18T01:12:41.284Z,100.00
2023-12-18T01:15:09.457Z,100.00
2023-12-18T01:17:37.231Z,100.00
2023-12-18T01:20:05.423Z,100.00
2023-12-18T01:22:33.029Z,100.00
2023-12-18T01:25:00.582Z,100.00
2023-12-18T01:27:28.166Z,100.00
2023-12-18T01:29:57.056Z,100.00
2023-12-18T01:32:24.637Z,100.00
2023-12-18T01:34:52.163Z,100.00
2023-12-18T01:37:19.740Z,100.00
2023-12-18T01:39:47.351Z,100.00
2023-12-18T01:42:14.914Z,100.00
2023-12-18T01:44:42.528Z,100.00
2023-12-18T01:47:11.658Z,100.00
2023-12-18T01:49:39.849Z,100.00
2023-12-18T01:52:08.004Z,100.00
2023-12-18T01:54:36.355Z,100.00
2023-12-18T01:57:06.022Z,100.00
2023-12-18T01:59:34.389Z,100.00
2023-12-18T02:02:02.003Z,100.00
2023-12-18T02:04:31.568Z,100.00
2023-12-18T02:07:03.128Z,100.00
2023-12-18T02:09:31.582Z,100.00
2023-12-18T02:11:59.147Z,100.00
2023-12-18T02:14:26.723Z,100.00
2023-12-18T02:16:54.293Z,100.00
2023-12-18T02:19:26.652Z,100.00
2023-12-18T02:21:56.565Z,100.00
2023-12-18T02:24:25.985Z,100.00
2023-12-18T02:26:55.132Z,100.00
2023-12-18T02:29:22.751Z,100.00
2023-12-18T02:31:50.339Z,100.00
2023-12-18T02:34:18.113Z,100.00
2023-12-18T02:36:45.777Z,100.00
2023-12-18T02:39:13.398Z,100.00
2023-12-18T02:41:42.325Z,100.00
2023-12-18T02:44:09.932Z,100.00
2023-12-18T02:46:37.443Z,100.00
2023-12-18T02:49:05.131Z,100.00
2023-12-18T02:51:32.839Z,100.00
2023-12-18T02:54:00.424Z,100.00
2023-12-18T02:56:27.974Z,100.00
2023-12-18T02:58:56.960Z,100.00
2023-12-18T03:01:24.627Z,100.00
2023-12-18T03:03:52.439Z,100.00
2023-12-18T03:06:20.111Z,100.00
2023-12-18T03:08:47.731Z,100.00
2023-12-18T03:11:15.293Z,100.00
2023-12-18T03:13:42.844Z,100.00
2023-12-18T03:16:11.850Z,100.00
2023-12-18T03:18:39.986Z,100.00
2023-12-18T03:21:11.067Z,100.00
2023-12-18T03:23:38.716Z,100.00
2023-12-18T03:26:06.338Z,100.00
2023-12-18T03:28:33.914Z,100.00
2023-12-18T03:31:01.523Z,100.00
2023-12-18T03:33:32.416Z,100.00
2023-12-18T03:36:00.160Z,100.00
2023-12-18T03:38:27.715Z,100.00
2023-12-18T03:40:55.244Z,100.00
2023-12-18T03:43:22.774Z,100.00
2023-12-18T03:45:50.451Z,100.00
2023-12-18T03:48:19.619Z,100.00
2023-12-18T03:50:48.905Z,100.00
2023-12-18T03:53:16.467Z,100.00
2023-12-18T03:55:43.982Z,100.00
2023-12-18T03:58:11.569Z,100.00
2023-12-18T04:00:39.155Z,100.00
2023-12-18T04:03:07.346Z,100.00
2023-12-18T04:05:35.368Z,100.00
2023-12-18T04:08:04.659Z,100.00
2023-12-18T04:10:32.241Z,100.00
2023-12-18T04:12:59.773Z,100.00
2023-12-18T04:15:27.364Z,100.00
2023-12-18T04:17:56.666Z,100.00
2023-12-18T04:20:24.345Z,100.00
2023-12-18T04:22:53.143Z,100.00
2023-12-18T04:25:22.102Z,100.00
2023-12-18T04:27:49.772Z,100.00
2023-12-18T04:30:17.461Z,100.00
2023-12-18T04:32:45.065Z,100.00
2023-12-18T04:35:12.659Z,100.00
2023-12-18T04:37:40.545Z,100.00
2023-12-18T04:40:09.460Z,100.00
2023-12-18T04:42:38.389Z,100.00
2023-12-18T04:45:06.634Z,100.00
2023-12-18T04:47:34.228Z,100.00
2023-12-18T04:50:01.788Z,100.00
2023-12-18T04:52:29.393Z,100.00
2023-12-18T04:54:57.070Z,100.00
2023-12-18T04:57:24.713Z,100.00
2023-12-18T04:59:53.565Z,100.00
2023-12-18T05:02:21.082Z,100.00
2023-12-18T05:04:48.732Z,100.00
2023-12-18T05:07:16.336Z,100.00
2023-12-18T05:09:45.343Z,100.00
2023-12-18T05:12:14.229Z,100.00
2023-12-18T05:14:41.836Z,100.00
2023-12-18T05:17:10.670Z,100.00
2023-12-18T05:19:38.289Z,100.00
2023-12-18T05:22:06.918Z,100.00
2023-12-18T05:24:34.502Z,100.00
2023-12-18T05:27:02.032Z,100.00
2023-12-18T05:29:29.556Z,100.00
2023-12-18T05:31:57.076Z,100.00
2023-12-18T05:34:27.280Z,100.00
2023-12-18T05:36:56.488Z,100.00
2023-12-18T05:39:25.096Z,100.00
2023-12-18T05:41:52.691Z,100.00
2023-12-18T05:44:20.239Z,100.00
2023-12-18T05:46:47.773Z,100.00
2023-12-18T05:49:15.515Z,100.00
2023-12-18T05:51:44.442Z,100.00
2023-12-18T05:54:12.007Z,100.00
2023-12-18T05:56:39.541Z,100.00
2023-12-18T05:59:07.051Z,100.00
2023-12-18T06:01:34.638Z,100.00
2023-12-18T06:04:02.295Z,100.00
2023-12-18T06:06:30.026Z,100.00
2023-12-18T06:08:58.941Z,100.00
2023-12-18T06:11:26.489Z,100.00
2023-12-18T06:13:54.083Z,100.00
2023-12-18T06:16:21.635Z,100.00
2023-12-18T06:18:49.453Z,100.00
2023-12-18T06:21:17.126Z,100.00
2023-12-18T06:23:45.151Z,100.00
2023-12-18T06:26:14.018Z,100.00
2023-12-18T06:28:41.624Z,100.00
2023-12-18T06:31:09.268Z,100.00
2023-12-18T06:33:37.014Z,100.00
2023-12-18T06:36:05.093Z,100.00
2023-12-18T06:38:33.179Z,100.00
2023-12-18T06:41:00.701Z,100.00
2023-12-18T06:43:29.686Z,100.00
2023-12-18T06:45:57.471Z,100.00
2023-12-18T06:48:25.255Z,100.00
2023-12-18T06:50:52.924Z,100.00
2023-12-18T06:53:20.634Z,100.00
2023-12-18T06:55:48.285Z,100.00
2023-12-18T06:58:16.637Z,100.00
2023-12-18T07:00:45.844Z,100.00
2023-12-18T07:03:13.546Z,100.00
2023-12-18T07:05:41.156Z,100.00
2023-12-18T07:08:09.007Z,100.00
2023-12-18T07:10:36.576Z,100.00
2023-12-18T07:13:04.194Z,100.00
2023-12-18T07:15:31.842Z,100.00
2023-12-18T07:18:01.024Z,100.00
2023-12-18T07:20:28.798Z,100.00
2023-12-18T07:22:57.358Z,100.00
2023-12-18T07:25:24.901Z,100.00
2023-12-18T07:27:52.461Z,100.00
2023-12-18T07:30:21.707Z,100.00
2023-12-18T07:32:49.637Z,100.00
2023-12-18T07:35:18.935Z,100.00
2023-12-18T07:37:47.488Z,100.00
2023-12-18T07:40:15.082Z,100.00
2023-12-18T07:42:42.879Z,100.00
2023-12-18T07:45:11.594Z,100.00
2023-12-18T07:47:40.595Z,100.00
2023-12-18T07:50:09.371Z,100.00
2023-12-18T07:52:38.223Z,100.00
2023-12-18T07:55:06.565Z,100.00
2023-12-18T07:57:34.164Z,100.00
2023-12-18T08:00:00.816Z,100.00
2023-12-18T08:02:28.382Z,100.00
2023-12-18T08:04:55.985Z,100.00
2023-12-18T08:07:23.551Z,100.00
2023-12-18T08:09:52.400Z,100.00
2023-12-18T08:12:20.017Z,100.00
2023-12-18T08:14:47.554Z,100.00
2023-12-18T08:17:16.436Z,100.00
2023-12-18T08:19:47.673Z,100.00
2023-12-18T08:22:15.489Z,100.00
2023-12-18T08:24:43.861Z,100.00
2023-12-18T08:27:12.975Z,100.00
2023-12-18T08:29:41.310Z,100.00
2023-12-18T08:32:08.934Z,100.00
2023-12-18T08:34:37.273Z,100.00
2023-12-18T08:37:07.164Z,100.00
2023-12-18T08:39:34.858Z,100.00
2023-12-18T08:42:02.395Z,100.00
2023-12-18T08:44:31.270Z,100.00
2023-12-18T08:46:59.394Z,100.00
2023-12-18T08:49:27.174Z,100.00
2023-12-18T08:51:54.898Z,100.00
2023-12-18T08:54:22.638Z,100.00
2023-12-18T08:56:52.895Z,100.00
2023-12-18T08:59:21.746Z,100.00
2023-12-18T09:01:51.460Z,100.00
2023-12-18T09:04:19.283Z,100.00
2023-12-18T09:06:46.955Z,100.00
2023-12-18T09:09:14.896Z,100.00
2023-12-18T09:11:42.539Z,100.00
2023-12-18T09:14:10.077Z,100.00
2023-12-18T09:16:38.801Z,100.00
2023-12-18T09:19:08.019Z,100.00
2023-12-18T09:21:35.716Z,100.00
2023-12-18T09:24:03.303Z,100.00
2023-12-18T09:26:31.019Z,100.00
2023-12-18T09:29:00.599Z,100.00
2023-12-18T09:31:28.253Z,100.00
2023-12-18T09:33:55.825Z,100.00
2023-12-18T09:36:24.765Z,100.00
2023-12-18T09:38:52.307Z,100.00
2023-12-18T09:41:24.230Z,100.00
2023-12-18T09:43:53.206Z,100.00
2023-12-18T09:46:24.159Z,100.00
2023-12-18T09:48:52.075Z,100.00
2023-12-18T09:51:24.455Z,100.00
2023-12-18T09:53:53.545Z,100.00
2023-12-18T09:56:22.677Z,100.00
2023-12-18T09:58:50.345Z,100.00
2023-12-18T10:01:18.017Z,100.00
2023-12-18T10:03:45.896Z,100.00
2023-12-18T10:06:14.711Z,100.00
2023-12-18T10:08:44.177Z,100.00
2023-12-18T10:11:25.002Z,100.00
2023-12-18T10:13:53.403Z,100.00
2023-12-18T10:16:21.049Z,100.00
2023-12-18T10:18:48.630Z,100.00
2023-12-18T10:21:24.057Z,100.00
2023-12-18T10:23:54.541Z,99.99
2023-12-18T10:26:23.059Z,99.87
2023-12-18T10:28:51.971Z,100.00
2023-12-18T10:31:19.853Z,100.00
2023-12-18T10:33:47.600Z,99.64
2023-12-18T10:36:18.122Z,99.91
2023-12-18T10:38:49.777Z,100.00
2023-12-18T10:41:21.729Z,100.00
2023-12-18T10:43:50.746Z,98.82
2023-12-18T10:46:18.585Z,99.53
2023-12-18T10:48:50.234Z,98.91
2023-12-18T10:51:22.072Z,99.35
2023-12-18T10:53:50.624Z,99.49
2023-12-18T10:56:22.465Z,99.01
2023-12-18T10:58:52.208Z,98.87
2023-12-18T11:01:21.278Z,99.09
2023-12-18T11:03:49.415Z,99.44
2023-12-18T11:06:20.011Z,99.43
2023-12-18T11:08:49.190Z,99.35
2023-12-18T11:11:20.071Z,98.49
2023-12-18T11:14:02.232Z,99.72
2023-12-18T11:16:39.954Z,99.21
2023-12-18T11:19:23.368Z,98.44
2023-12-18T11:21:55.059Z,99.19
2023-12-18T11:24:22.773Z,98.69
2023-12-18T11:26:53.255Z,98.47
2023-12-18T11:29:44.358Z,98.42
2023-12-18T11:32:13.083Z,98.14
2023-12-18T11:34:41.744Z,97.05
2023-12-18T11:37:10.433Z,97.86
2023-12-18T11:39:50.002Z,97.49
2023-12-18T11:42:49.424Z,97.54
2023-12-18T11:45:17.150Z,98.09
2023-12-18T11:47:44.828Z,98.50
2023-12-18T11:50:12.809Z,97.76
2023-12-18T11:52:40.720Z,97.86
2023-12-18T11:55:09.664Z,98.04
2023-12-18T11:57:44.827Z,98.21
2023-12-18T12:00:16.126Z,97.94
2023-12-18T12:02:44.289Z,98.12
2023-12-18T12:05:14.281Z,97.86
2023-12-18T12:07:42.070Z,98.33
2023-12-18T12:10:09.937Z,97.57
2023-12-18T12:12:37.629Z,97.33
2023-12-18T12:15:05.663Z,97.41
2023-12-18T12:17:34.635Z,97.21
2023-12-18T12:20:02.294Z,97.76
2023-12-18T12:22:30.796Z,97.36
2023-12-18T12:24:58.412Z,97.84
2023-12-18T12:27:27.406Z,96.98
2023-12-18T12:29:55.005Z,97.35
2023-12-18T12:32:22.726Z,98.30
2023-12-18T12:34:52.299Z,96.42
2023-12-18T12:37:20.269Z,96.79
2023-12-18T12:40:01.367Z,97.74
2023-12-18T12:42:29.237Z,97.24
2023-12-18T12:44:57.272Z,97.61
2023-12-18T12:47:24.797Z,97.41
2023-12-18T12:49:53.761Z,98.20
2023-12-18T12:52:22.260Z,97.71
2023-12-18T12:54:49.064Z,97.18
2023-12-18T12:57:17.791Z,97.16
2023-12-18T12:59:53.069Z,97.20
2023-12-18T13:02:21.117Z,97.60
2023-12-18T13:04:49.956Z,97.12
2023-12-18T13:07:19.725Z,96.59
2023-12-18T13:09:47.224Z,97.26
2023-12-18T13:12:15.898Z,96.89
2023-12-18T13:14:43.503Z,96.29
2023-12-18T13:17:11.023Z,96.45
2023-12-18T13:19:38.964Z,96.54
2023-12-18T13:22:08.061Z,96.48
2023-12-18T13:24:38.439Z,96.09
2023-12-18T13:27:06.604Z,96.56
2023-12-18T13:29:34.872Z,97.24
2023-12-18T13:32:02.678Z,96.51
2023-12-18T13:34:30.722Z,96.25
2023-12-18T13:36:58.586Z,96.75
2023-12-18T13:39:26.681Z,97.34
2023-12-18T13:41:57.729Z,96.77
2023-12-18T13:44:25.587Z,96.57
2023-12-18T13:46:53.960Z,97.47
2023-12-18T13:49:21.636Z,96.05
2023-12-18T13:51:49.676Z,96.59
2023-12-18T13:54:18.124Z,97.24
2023-12-18T13:56:46.548Z,96.79
2023-12-18T13:59:15.400Z,96.62
2023-12-18T14:01:43.054Z,97.93
2023-12-18T14:04:11.368Z,97.16
2023-12-18T14:06:39.479Z,97.13
2023-12-18T14:09:07.308Z,97.54
2023-12-18T14:11:34.878Z,97.87
2023-12-18T14:14:02.435Z,97.87
2023-12-18T14:16:31.453Z,96.61
2023-12-18T14:18:59.142Z,97.27
2023-12-18T14:21:27.695Z,97.61
2023-12-18T14:23:55.378Z,97.90
2023-12-18T14:26:22.924Z,97.29
2023-12-18T14:28:50.596Z,97.80
2023-12-18T14:31:18.223Z,98.05
2023-12-18T14:33:47.570Z,96.23
2023-12-18T14:36:15.320Z,98.04
2023-12-18T14:38:43.024Z,98.76
2023-12-18T14:41:10.578Z,98.34
2023-12-18T14:43:39.172Z,98.15
2023-12-18T14:46:08.870Z,97.88
2023-12-18T14:48:36.825Z,97.38
2023-12-18T14:51:06.090Z,96.59
2023-12-18T14:53:33.624Z,97.73
2023-12-18T14:56:02.128Z,99.16
2023-12-18T14:58:29.690Z,98.89
2023-12-18T15:00:57.397Z,98.90
2023-12-18T15:03:25.246Z,98.63
2023-12-18T15:05:53.018Z,99.40
2023-12-18T15:08:22.045Z,97.53
2023-12-18T15:10:49.616Z,98.37
2023-12-18T15:13:17.157Z,100.00
2023-12-18T15:15:44.944Z,99.71
2023-12-18T15:18:12.864Z,98.88
2023-12-18T15:20:40.458Z,100.00
2023-12-18T15:23:07.990Z,100.00
2023-12-18T15:25:36.993Z,100.00
2023-12-18T15:28:05.142Z,100.00
2023-12-18T15:30:32.813Z,100.00
2023-12-18T15:33:00.811Z,100.00
2023-12-18T15:35:28.394Z,100.00
2023-12-18T15:37:55.972Z,100.00
2023-12-18T15:40:23.619Z,100.00
2023-12-18T15:42:52.574Z,100.00
2023-12-18T15:45:20.236Z,100.00
2023-12-18T15:47:48.064Z,99.45
2023-12-18T15:50:17.061Z,100.00
2023-12-18T15:52:45.132Z,100.00
2023-12-18T15:55:13.018Z,99.37
2023-12-18T15:57:40.720Z,99.79
2023-12-18T16:00:12.012Z,100.00
2023-12-18T16:02:40.044Z,100.00
2023-12-18T16:05:08.686Z,99.36
2023-12-18T16:07:38.781Z,100.00
2023-12-18T16:10:07.384Z,99.80
2023-12-18T16:12:35.142Z,97.94
2023-12-18T16:15:03.402Z,100.00
2023-12-18T16:17:32.340Z,99.39
2023-12-18T16:19:59.995Z,100.00
2023-12-18T16:22:27.516Z,98.88
2023-12-18T16:24:55.620Z,100.00
2023-12-18T16:27:23.227Z,100.00
2023-12-18T16:29:54.715Z,98.98
2023-12-18T16:32:22.520Z,97.02
2023-12-18T16:34:51.563Z,99.13
2023-12-18T16:37:22.167Z,96.34
2023-12-18T16:39:49.764Z,98.71
2023-12-18T16:42:16.488Z,98.70
2023-12-18T16:44:44.079Z,96.48
2023-12-18T16:47:12.577Z,99.46
2023-12-18T16:49:40.191Z,97.41
2023-12-18T16:52:09.175Z,96.74
2023-12-18T16:54:36.781Z,98.28
2023-12-18T16:57:04.840Z,98.94
2023-12-18T16:59:32.353Z,98.31
2023-12-18T17:02:00.020Z,96.83
2023-12-18T17:04:27.637Z,96.36
2023-12-18T17:06:55.507Z,97.17
2023-12-18T17:09:24.432Z,97.46
2023-12-18T17:11:52.057Z,97.54
2023-12-18T17:14:19.940Z,96.64
2023-12-18T17:16:47.963Z,98.28
2023-12-18T17:19:15.594Z,97.50
2023-12-18T17:21:43.184Z,95.91
2023-12-18T17:24:10.803Z,94.06
2023-12-18T17:26:39.640Z,95.07
2023-12-18T17:29:07.267Z,95.17
2023-12-18T17:31:34.945Z,94.76
2023-12-18T17:34:03.714Z,94.44
2023-12-18T17:36:31.529Z,94.40
2023-12-18T17:38:59.414Z,93.45
2023-12-18T17:41:27.494Z,94.64
2023-12-18T17:43:56.365Z,95.35
2023-12-18T17:46:23.913Z,96.58
2023-12-18T17:48:51.742Z,96.47
2023-12-18T17:51:19.465Z,98.24
2023-12-18T17:53:47.003Z,96.88
2023-12-18T17:56:14.566Z,96.78
2023-12-18T17:58:42.199Z,97.49
2023-12-18T18:01:14.401Z,96.93
2023-12-18T18:03:42.134Z,97.54
2023-12-18T18:06:10.019Z,97.84
2023-12-18T18:08:37.597Z,97.39
2023-12-18T18:11:05.675Z,95.15
2023-12-18T18:13:33.231Z,96.97
2023-12-18T18:16:00.836Z,94.67
2023-12-18T18:18:29.905Z,94.43
2023-12-18T18:20:57.564Z,95.16
2023-12-18T18:23:25.103Z,93.91
2023-12-18T18:25:52.677Z,94.76
2023-12-18T18:28:20.201Z,94.27
2023-12-18T18:30:49.443Z,93.57
2023-12-18T18:33:17.285Z,96.70
2023-12-18T18:35:47.044Z,94.81
2023-12-18T18:38:16.124Z,94.11
2023-12-18T18:40:43.682Z,94.55
2023-12-18T18:43:11.492Z,93.73
2023-12-18T18:45:39.807Z,93.13
2023-12-18T18:48:08.478Z,96.35
2023-12-18T18:50:36.311Z,93.29
2023-12-18T18:53:08.937Z,94.05
2023-12-18T18:55:36.473Z,93.65
2023-12-18T18:58:04.419Z,91.94
2023-12-18T19:00:32.353Z,93.23
2023-12-18T19:03:00.918Z,93.85
2023-12-18T19:05:29.492Z,94.06
2023-12-18T19:07:57.127Z,93.28
2023-12-18T19:10:26.686Z,91.85
2023-12-18T19:12:54.290Z,94.15
2023-12-18T19:15:21.943Z,94.14
2023-12-18T19:17:49.547Z,92.30
2023-12-18T19:20:17.166Z,91.42
2023-12-18T19:22:45.312Z,91.88
2023-12-18T19:25:12.996Z,89.88
2023-12-18T19:27:42.465Z,90.54
2023-12-18T19:30:11.639Z,92.00
2023-12-18T19:32:41.172Z,92.43
2023-12-18T19:35:09.573Z,93.07
2023-12-18T19:37:37.096Z,91.24
2023-12-18T19:40:05.170Z,90.43
2023-12-18T19:42:32.751Z,90.16
2023-12-18T19:45:01.703Z,87.87
2023-12-18T19:47:29.537Z,89.65
2023-12-18T19:49:57.196Z,87.06
2023-12-18T19:52:24.851Z,88.11
2023-12-18T19:54:52.470Z,87.39
2023-12-18T19:57:20.382Z,88.71
2023-12-18T19:59:48.924Z,88.12
2023-12-18T20:02:20.813Z,85.67
2023-12-18T20:04:48.337Z,84.97
2023-12-18T20:07:15.993Z,87.68
2023-12-18T20:09:43.654Z,88.54
2023-12-18T20:12:13.353Z,87.03
2023-12-18T20:14:40.872Z,85.00
2023-12-18T20:17:08.417Z,85.89
2023-12-18T20:19:37.350Z,86.84
2023-12-18T20:22:05.542Z,86.98
2023-12-18T20:24:33.177Z,86.99
2023-12-18T20:27:01.683Z,86.68
2023-12-18T20:29:32.284Z,87.58
2023-12-18T20:31:59.883Z,89.23
2023-12-18T20:34:27.650Z,89.55
2023-12-18T20:36:56.588Z,87.48
2023-12-18T20:39:24.203Z,88.22
2023-12-18T20:41:51.771Z,87.49
2023-12-18T20:44:19.324Z,89.55
2023-12-18T20:46:46.842Z,88.82
2023-12-18T20:49:14.664Z,87.97
2023-12-18T20:51:42.419Z,87.83
2023-12-18T20:54:11.666Z,85.69
2023-12-18T20:56:39.284Z,88.26
2023-12-18T20:59:07.223Z,88.39
2023-12-18T21:01:34.883Z,89.01
2023-12-18T21:04:02.681Z,88.69
2023-12-18T21:06:30.314Z,85.27
2023-12-18T21:08:57.862Z,86.38
2023-12-18T21:11:25.746Z,85.75
2023-12-18T21:13:53.306Z,86.41
2023-12-18T21:16:20.852Z,85.83
2023-12-18T21:18:48.537Z,86.41
2023-12-18T21:21:16.635Z,87.91
2023-12-18T21:23:44.179Z,88.81
2023-12-18T21:26:12.879Z,87.98
2023-12-18T21:28:41.736Z,87.80
2023-12-18T21:31:09.726Z,88.15
2023-12-18T21:33:37.581Z,88.56
2023-12-18T21:36:06.154Z,85.42
2023-12-18T21:38:33.812Z,85.68
2023-12-18T21:41:02.234Z,87.03
2023-12-18T21:43:32.139Z,87.04
2023-12-18T21:46:01.030Z,88.25
2023-12-18T21:48:28.816Z,89.73
2023-12-18T21:50:56.886Z,89.27
2023-12-18T21:53:24.409Z,88.65
2023-12-18T21:55:52.174Z,86.87
2023-12-18T21:58:19.793Z,86.91
2023-12-18T22:00:47.343Z,87.21
2023-12-18T22:03:18.243Z,86.51
2023-12-18T22:05:46.165Z,85.50
2023-12-18T22:08:14.097Z,85.00
2023-12-18T22:10:41.705Z,87.47
2023-12-18T22:13:09.272Z,86.30
2023-12-18T22:15:36.994Z,85.19
2023-12-18T22:18:05.095Z,86.73
2023-12-18T22:20:34.019Z,85.81
2023-12-18T22:23:01.664Z,85.49
2023-12-18T22:25:29.182Z,88.55
2023-12-18T22:27:56.749Z,89.36
2023-12-18T22:30:24.556Z,87.57
2023-12-18T22:32:52.190Z,86.53
2023-12-18T22:35:19.903Z,85.46
2023-12-18T22:37:48.831Z,88.08
2023-12-18T22:40:16.491Z,87.17
2023-12-18T22:42:44.229Z,87.31
2023-12-18T22:45:12.345Z,86.41
2023-12-18T22:47:40.000Z,86.94
2023-12-18T22:50:09.125Z,85.47
2023-12-18T22:52:36.912Z,86.18
2023-12-18T22:55:06.835Z,86.60
2023-12-18T22:57:35.025Z,85.73
2023-12-18T23:00:03.019Z,87.66
2023-12-18T23:02:30.811Z,88.08
2023-12-18T23:04:59.130Z,88.10
2023-12-18T23:07:26.882Z,89.03
2023-12-18T23:09:55.100Z,88.59
2023-12-18T23:12:24.024Z,89.84
2023-12-18T23:14:51.577Z,90.56
2023-12-18T23:17:19.117Z,90.39
2023-12-18T23:19:46.694Z,90.37
2023-12-18T23:22:14.345Z,90.26
2023-12-18T23:24:42.442Z,89.45
2023-12-18T23:27:11.182Z,89.99
2023-12-18T23:29:40.028Z,90.61
2023-12-18T23:32:08.022Z,90.07
2023-12-18T23:34:35.653Z,89.36
2023-12-18T23:37:03.357Z,90.34
2023-12-18T23:39:30.905Z,89.44
2023-12-18T23:41:58.476Z,90.85
2023-12-18T23:44:26.008Z,90.24
2023-12-18T23:46:54.846Z,90.20
2023-12-18T23:49:24.000Z,89.97
2023-12-18T23:51:51.771Z,90.09
2023-12-18T23:54:19.348Z,89.83
2023-12-18T23:56:46.879Z,90.58
2023-12-18T23:59:14.409Z,90.77
